sensor_id;sensor_type;location;lat;lon;timestamp;P1;durP1;ratioP1;P2;durP2;ratioP2
18875;SDS011;9570;50.854;13.778;2022-12-15T00:00:50;25.63;;;13.30;;
18875;SDS011;9570;50.854;13.778;2022-12-15T00:03:34;25.77;;;13.93;;
18875;SDS011;9570;50.854;13.778;2022-12-15T00:06:18;25.02;;;13.77;;
18875;SDS011;9570;50.854;13.778;2022-12-15T00:09:02;25.75;;;14.68;;
18875;SDS011;9570;50.854;13.778;2022-12-15T00:11:47;28.38;;;14.23;;
18875;SDS011;9570;50.854;13.778;2022-12-15T00:14:31;25.88;;;13.90;;
18875;SDS011;9570;50.854;13.778;2022-12-15T00:17:15;30.90;;;14.90;;
18875;SDS011;9570;50.854;13.778;2022-12-15T00:19:59;25.10;;;14.02;;
18875;SDS011;9570;50.854;13.778;2022-12-15T00:22:43;28.25;;;13.88;;
18875;SDS011;9570;50.854;13.778;2022-12-15T00:25:27;25.70;;;13.52;;
18875;SDS011;9570;50.854;13.778;2022-12-15T00:28:11;29.42;;;14.02;;
18875;SDS011;9570;50.854;13.778;2022-12-15T00:30:56;25.85;;;13.85;;
18875;SDS011;9570;50.854;13.778;2022-12-15T00:33:41;31.50;;;15.02;;
18875;SDS011;9570;50.854;13.778;2022-12-15T00:36:24;25.30;;;13.52;;
18875;SDS011;9570;50.854;13.778;2022-12-15T00:39:09;26.92;;;14.32;;
18875;SDS011;9570;50.854;13.778;2022-12-15T00:41:34;28.20;;;14.53;;
18875;SDS011;9570;50.854;13.778;2022-12-15T00:44:00;32.33;;;14.87;;
18875;SDS011;9570;50.854;13.778;2022-12-15T00:46:25;26.80;;;14.17;;
18875;SDS011;9570;50.854;13.778;2022-12-15T00:49:09;26.00;;;13.98;;
18875;SDS011;9570;50.854;13.778;2022-12-15T00:51:55;28.65;;;14.52;;
18875;SDS011;9570;50.854;13.778;2022-12-15T00:54:39;25.38;;;13.07;;
18875;SDS011;9570;50.854;13.778;2022-12-15T00:57:23;27.02;;;13.27;;
18875;SDS011;9570;50.854;13.778;2022-12-15T01:00:07;27.67;;;13.38;;
18875;SDS011;9570;50.854;13.778;2022-12-15T01:02:52;22.92;;;12.23;;
18875;SDS011;9570;50.854;13.778;2022-12-15T01:05:35;24.10;;;12.75;;
18875;SDS011;9570;50.854;13.778;2022-12-15T01:08:19;28.05;;;13.60;;
18875;SDS011;9570;50.854;13.778;2022-12-15T01:11:04;25.50;;;13.23;;
18875;SDS011;9570;50.854;13.778;2022-12-15T01:13:48;31.75;;;13.90;;
18875;SDS011;9570;50.854;13.778;2022-12-15T01:16:32;21.50;;;11.80;;
18875;SDS011;9570;50.854;13.778;2022-12-15T01:19:16;25.48;;;12.50;;
18875;SDS011;9570;50.854;13.778;2022-12-15T01:22:00;24.85;;;13.15;;
18875;SDS011;9570;50.854;13.778;2022-12-15T01:24:25;22.90;;;12.93;;
18875;SDS011;9570;50.854;13.778;2022-12-15T01:26:51;24.40;;;12.97;;
18875;SDS011;9570;50.854;13.778;2022-12-15T01:29:16;22.50;;;12.63;;
18875;SDS011;9570;50.854;13.778;2022-12-15T01:31:42;20.97;;;11.70;;
18875;SDS011;9570;50.854;13.778;2022-12-15T01:34:07;24.03;;;12.63;;
18875;SDS011;9570;50.854;13.778;2022-12-15T01:36:33;24.67;;;12.37;;
18875;SDS011;9570;50.854;13.778;2022-12-15T01:38:59;24.23;;;13.23;;
18875;SDS011;9570;50.854;13.778;2022-12-15T01:41:25;23.77;;;12.80;;
18875;SDS011;9570;50.854;13.778;2022-12-15T01:43:52;26.45;;;13.65;;
18875;SDS011;9570;50.854;13.778;2022-12-15T01:46:21;26.40;;;13.57;;
18875;SDS011;9570;50.854;13.778;2022-12-15T01:51:38;22.85;;;11.68;;
18875;SDS011;9570;50.854;13.778;2022-12-15T01:56:42;25.13;;;12.90;;
18875;SDS011;9570;50.854;13.778;2022-12-15T01:59:13;26.17;;;11.25;;
18875;SDS011;9570;50.854;13.778;2022-12-15T02:01:43;21.13;;;11.07;;
18875;SDS011;9570;50.854;13.778;2022-12-15T02:04:09;23.63;;;12.57;;
18875;SDS011;9570;50.854;13.778;2022-12-15T02:06:35;25.60;;;12.98;;
18875;SDS011;9570;50.854;13.778;2022-12-15T02:09:01;22.37;;;12.83;;
18875;SDS011;9570;50.854;13.778;2022-12-15T02:14:10;23.38;;;11.35;;
18875;SDS011;9570;50.854;13.778;2022-12-15T02:16:43;21.13;;;10.98;;
18875;SDS011;9570;50.854;13.778;2022-12-15T02:22:11;21.77;;;10.82;;
18875;SDS011;9570;50.854;13.778;2022-12-15T02:27:47;21.90;;;11.38;;
18875;SDS011;9570;50.854;13.778;2022-12-15T02:30:26;21.60;;;10.95;;
18875;SDS011;9570;50.854;13.778;2022-12-15T02:33:03;20.27;;;11.10;;
18875;SDS011;9570;50.854;13.778;2022-12-15T02:35:41;19.55;;;10.57;;
18875;SDS011;9570;50.854;13.778;2022-12-15T02:38:26;20.60;;;10.95;;
18875;SDS011;9570;50.854;13.778;2022-12-15T02:40:56;21.35;;;11.35;;
18875;SDS011;9570;50.854;13.778;2022-12-15T02:43:22;24.88;;;12.23;;
18875;SDS011;9570;50.854;13.778;2022-12-15T02:45:51;21.47;;;11.50;;
18875;SDS011;9570;50.854;13.778;2022-12-15T02:48:29;20.63;;;11.75;;
18875;SDS011;9570;50.854;13.778;2022-12-15T02:51:10;22.33;;;11.07;;
18875;SDS011;9570;50.854;13.778;2022-12-15T02:56:42;19.60;;;11.35;;
18875;SDS011;9570;50.854;13.778;2022-12-15T03:01:57;26.75;;;12.00;;
18875;SDS011;9570;50.854;13.778;2022-12-15T03:04:27;23.67;;;11.65;;
18875;SDS011;9570;50.854;13.778;2022-12-15T03:06:56;21.33;;;11.52;;
18875;SDS011;9570;50.854;13.778;2022-12-15T03:09:22;22.00;;;11.10;;
18875;SDS011;9570;50.854;13.778;2022-12-15T03:11:48;20.00;;;10.90;;
18875;SDS011;9570;50.854;13.778;2022-12-15T03:14:14;19.40;;;10.50;;
18875;SDS011;9570;50.854;13.778;2022-12-15T03:16:39;22.40;;;10.57;;
18875;SDS011;9570;50.854;13.778;2022-12-15T03:19:05;23.80;;;11.43;;
18875;SDS011;9570;50.854;13.778;2022-12-15T03:21:30;20.70;;;10.90;;
18875;SDS011;9570;50.854;13.778;2022-12-15T03:23:56;21.43;;;11.53;;
18875;SDS011;9570;50.854;13.778;2022-12-15T03:26:21;22.63;;;11.47;;
18875;SDS011;9570;50.854;13.778;2022-12-15T03:28:47;22.87;;;11.00;;
18875;SDS011;9570;50.854;13.778;2022-12-15T03:31:12;22.33;;;11.23;;
18875;SDS011;9570;50.854;13.778;2022-12-15T03:33:38;26.50;;;12.03;;
18875;SDS011;9570;50.854;13.778;2022-12-15T03:36:03;24.10;;;12.10;;
18875;SDS011;9570;50.854;13.778;2022-12-15T03:38:29;22.27;;;12.07;;
18875;SDS011;9570;50.854;13.778;2022-12-15T03:40:55;26.70;;;13.23;;
18875;SDS011;9570;50.854;13.778;2022-12-15T03:43:20;25.77;;;12.30;;
18875;SDS011;9570;50.854;13.778;2022-12-15T03:45:46;21.60;;;10.97;;
18875;SDS011;9570;50.854;13.778;2022-12-15T03:48:11;24.33;;;12.70;;
18875;SDS011;9570;50.854;13.778;2022-12-15T03:50:37;21.10;;;12.10;;
18875;SDS011;9570;50.854;13.778;2022-12-15T03:53:03;27.63;;;12.90;;
18875;SDS011;9570;50.854;13.778;2022-12-15T03:55:29;20.55;;;11.73;;
18875;SDS011;9570;50.854;13.778;2022-12-15T03:57:55;23.35;;;11.57;;
18875;SDS011;9570;50.854;13.778;2022-12-15T04:00:21;21.60;;;11.05;;
18875;SDS011;9570;50.854;13.778;2022-12-15T04:02:48;22.70;;;11.68;;
18875;SDS011;9570;50.854;13.778;2022-12-15T04:05:16;20.93;;;10.83;;
18875;SDS011;9570;50.854;13.778;2022-12-15T04:07:43;22.73;;;11.85;;
18875;SDS011;9570;50.854;13.778;2022-12-15T04:10:09;22.80;;;12.00;;
18875;SDS011;9570;50.854;13.778;2022-12-15T04:12:36;19.40;;;11.55;;
18875;SDS011;9570;50.854;13.778;2022-12-15T04:15:03;22.55;;;12.15;;
18875;SDS011;9570;50.854;13.778;2022-12-15T04:17:33;21.17;;;11.40;;
18875;SDS011;9570;50.854;13.778;2022-12-15T04:19:58;26.33;;;12.13;;
18875;SDS011;9570;50.854;13.778;2022-12-15T04:22:34;23.45;;;11.30;;
18875;SDS011;9570;50.854;13.778;2022-12-15T04:25:00;22.30;;;11.63;;
18875;SDS011;9570;50.854;13.778;2022-12-15T04:27:44;20.88;;;11.00;;
18875;SDS011;9570;50.854;13.778;2022-12-15T04:30:29;26.60;;;10.77;;
18875;SDS011;9570;50.854;13.778;2022-12-15T04:33:14;24.10;;;12.00;;
18875;SDS011;9570;50.854;13.778;2022-12-15T04:35:58;21.33;;;11.00;;
18875;SDS011;9570;50.854;13.778;2022-12-15T04:38:43;23.85;;;11.82;;
18875;SDS011;9570;50.854;13.778;2022-12-15T04:41:27;24.25;;;11.63;;
18875;SDS011;9570;50.854;13.778;2022-12-15T04:44:11;27.65;;;11.90;;
18875;SDS011;9570;50.854;13.778;2022-12-15T04:46:55;20.40;;;10.55;;
18875;SDS011;9570;50.854;13.778;2022-12-15T04:49:39;22.08;;;11.70;;
18875;SDS011;9570;50.854;13.778;2022-12-15T04:52:23;23.83;;;12.18;;
18875;SDS011;9570;50.854;13.778;2022-12-15T04:55:07;21.77;;;10.85;;
18875;SDS011;9570;50.854;13.778;2022-12-15T04:57:51;22.77;;;11.18;;
18875;SDS011;9570;50.854;13.778;2022-12-15T05:00:35;19.75;;;11.10;;
18875;SDS011;9570;50.854;13.778;2022-12-15T05:03:20;18.55;;;10.55;;
18875;SDS011;9570;50.854;13.778;2022-12-15T05:06:04;19.42;;;9.18;;
18875;SDS011;9570;50.854;13.778;2022-12-15T05:08:48;18.48;;;10.05;;
18875;SDS011;9570;50.854;13.778;2022-12-15T05:11:32;20.67;;;10.73;;
18875;SDS011;9570;50.854;13.778;2022-12-15T05:14:16;18.98;;;9.77;;
18875;SDS011;9570;50.854;13.778;2022-12-15T05:17:00;21.70;;;10.18;;
18875;SDS011;9570;50.854;13.778;2022-12-15T05:19:44;21.30;;;10.70;;
18875;SDS011;9570;50.854;13.778;2022-12-15T05:22:28;24.15;;;11.68;;
18875;SDS011;9570;50.854;13.778;2022-12-15T05:25:12;19.92;;;11.02;;
18875;SDS011;9570;50.854;13.778;2022-12-15T05:27:57;24.98;;;13.15;;
18875;SDS011;9570;50.854;13.778;2022-12-15T05:30:41;25.48;;;12.43;;
18875;SDS011;9570;50.854;13.778;2022-12-15T05:33:25;21.15;;;11.18;;
18875;SDS011;9570;50.854;13.778;2022-12-15T05:35:50;19.37;;;10.63;;
18875;SDS011;9570;50.854;13.778;2022-12-15T05:38:16;21.00;;;11.10;;
18875;SDS011;9570;50.854;13.778;2022-12-15T05:40:42;19.67;;;10.25;;
18875;SDS011;9570;50.854;13.778;2022-12-15T05:43:08;22.07;;;10.70;;
18875;SDS011;9570;50.854;13.778;2022-12-15T05:45:33;21.17;;;10.20;;
18875;SDS011;9570;50.854;13.778;2022-12-15T05:47:59;18.53;;;9.20;;
18875;SDS011;9570;50.854;13.778;2022-12-15T05:50:24;19.33;;;9.53;;
18875;SDS011;9570;50.854;13.778;2022-12-15T05:52:50;17.67;;;9.30;;
18875;SDS011;9570;50.854;13.778;2022-12-15T05:55:16;15.67;;;8.70;;
18875;SDS011;9570;50.854;13.778;2022-12-15T05:57:42;17.98;;;8.50;;
18875;SDS011;9570;50.854;13.778;2022-12-15T06:00:08;18.00;;;8.73;;
18875;SDS011;9570;50.854;13.778;2022-12-15T06:02:34;18.00;;;9.05;;
18875;SDS011;9570;50.854;13.778;2022-12-15T06:04:59;18.77;;;8.70;;
18875;SDS011;9570;50.854;13.778;2022-12-15T06:07:26;14.80;;;8.32;;
18875;SDS011;9570;50.854;13.778;2022-12-15T06:09:51;14.30;;;7.77;;
18875;SDS011;9570;50.854;13.778;2022-12-15T06:12:17;13.67;;;7.63;;
18875;SDS011;9570;50.854;13.778;2022-12-15T06:14:42;15.30;;;8.17;;
18875;SDS011;9570;50.854;13.778;2022-12-15T06:17:08;11.10;;;6.50;;
18875;SDS011;9570;50.854;13.778;2022-12-15T06:19:33;10.47;;;6.47;;
18875;SDS011;9570;50.854;13.778;2022-12-15T06:21:59;11.33;;;6.97;;
18875;SDS011;9570;50.854;13.778;2022-12-15T06:24:24;14.40;;;7.53;;
18875;SDS011;9570;50.854;13.778;2022-12-15T06:26:50;13.90;;;7.03;;
18875;SDS011;9570;50.854;13.778;2022-12-15T06:29:16;17.53;;;8.60;;
18875;SDS011;9570;50.854;13.778;2022-12-15T06:31:42;15.77;;;8.10;;
18875;SDS011;9570;50.854;13.778;2022-12-15T06:34:11;15.27;;;7.63;;
18875;SDS011;9570;50.854;13.778;2022-12-15T06:36:38;13.52;;;7.40;;
18875;SDS011;9570;50.854;13.778;2022-12-15T06:39:05;12.40;;;5.95;;
18875;SDS011;9570;50.854;13.778;2022-12-15T06:41:33;13.30;;;7.50;;
18875;SDS011;9570;50.854;13.778;2022-12-15T06:43:58;13.23;;;7.07;;
18875;SDS011;9570;50.854;13.778;2022-12-15T06:46:25;16.52;;;7.07;;
18875;SDS011;9570;50.854;13.778;2022-12-15T06:48:52;14.80;;;6.65;;
18875;SDS011;9570;50.854;13.778;2022-12-15T06:51:17;12.23;;;5.97;;
18875;SDS011;9570;50.854;13.778;2022-12-15T06:53:43;10.83;;;6.07;;
18875;SDS011;9570;50.854;13.778;2022-12-15T06:56:15;11.52;;;6.47;;
18875;SDS011;9570;50.854;13.778;2022-12-15T06:58:45;13.20;;;6.47;;
18875;SDS011;9570;50.854;13.778;2022-12-15T07:01:12;11.38;;;6.30;;
18875;SDS011;9570;50.854;13.778;2022-12-15T07:03:37;9.63;;;5.97;;
18875;SDS011;9570;50.854;13.778;2022-12-15T07:06:04;11.27;;;6.87;;
18875;SDS011;9570;50.854;13.778;2022-12-15T07:08:31;11.10;;;6.32;;
18875;SDS011;9570;50.854;13.778;2022-12-15T07:10:57;15.10;;;7.10;;
18875;SDS011;9570;50.854;13.778;2022-12-15T07:13:23;13.53;;;7.67;;
18875;SDS011;9570;50.854;13.778;2022-12-15T07:15:49;14.10;;;7.77;;
18875;SDS011;9570;50.854;13.778;2022-12-15T07:18:14;13.20;;;7.57;;
18875;SDS011;9570;50.854;13.778;2022-12-15T07:20:41;13.23;;;7.45;;
18875;SDS011;9570;50.854;13.778;2022-12-15T07:23:08;11.88;;;6.15;;
18875;SDS011;9570;50.854;13.778;2022-12-15T07:25:37;10.37;;;5.97;;
18875;SDS011;9570;50.854;13.778;2022-12-15T07:28:04;9.23;;;5.53;;
18875;SDS011;9570;50.854;13.778;2022-12-15T07:30:30;9.90;;;5.57;;
18875;SDS011;9570;50.854;13.778;2022-12-15T07:32:57;9.93;;;6.25;;
18875;SDS011;9570;50.854;13.778;2022-12-15T07:35:23;11.27;;;7.07;;
18875;SDS011;9570;50.854;13.778;2022-12-15T07:37:48;15.50;;;8.10;;
18875;SDS011;9570;50.854;13.778;2022-12-15T07:40:15;13.27;;;8.03;;
18875;SDS011;9570;50.854;13.778;2022-12-15T07:42:41;11.95;;;7.32;;
18875;SDS011;9570;50.854;13.778;2022-12-15T07:45:06;13.83;;;7.00;;
18875;SDS011;9570;50.854;13.778;2022-12-15T07:47:32;14.48;;;7.43;;
18875;SDS011;9570;50.854;13.778;2022-12-15T07:49:58;11.23;;;6.10;;
18875;SDS011;9570;50.854;13.778;2022-12-15T07:52:24;13.53;;;6.70;;
18875;SDS011;9570;50.854;13.778;2022-12-15T07:54:50;13.50;;;7.10;;
18875;SDS011;9570;50.854;13.778;2022-12-15T07:57:15;12.53;;;6.40;;
18875;SDS011;9570;50.854;13.778;2022-12-15T07:59:42;9.05;;;5.65;;
18875;SDS011;9570;50.854;13.778;2022-12-15T08:02:08;12.93;;;8.10;;
18875;SDS011;9570;50.854;13.778;2022-12-15T08:04:35;10.80;;;6.90;;
18875;SDS011;9570;50.854;13.778;2022-12-15T08:07:01;8.97;;;5.47;;
18875;SDS011;9570;50.854;13.778;2022-12-15T08:09:26;12.57;;;6.57;;
18875;SDS011;9570;50.854;13.778;2022-12-15T08:11:52;12.07;;;6.40;;
18875;SDS011;9570;50.854;13.778;2022-12-15T08:14:17;12.60;;;7.50;;
18875;SDS011;9570;50.854;13.778;2022-12-15T08:16:43;11.00;;;6.67;;
18875;SDS011;9570;50.854;13.778;2022-12-15T08:19:12;11.77;;;6.45;;
18875;SDS011;9570;50.854;13.778;2022-12-15T08:21:39;10.40;;;6.07;;
18875;SDS011;9570;50.854;13.778;2022-12-15T08:24:06;9.93;;;5.75;;
18875;SDS011;9570;50.854;13.778;2022-12-15T08:26:32;11.80;;;7.15;;
18875;SDS011;9570;50.854;13.778;2022-12-15T08:29:00;10.57;;;6.38;;
18875;SDS011;9570;50.854;13.778;2022-12-15T08:31:30;11.05;;;6.75;;
18875;SDS011;9570;50.854;13.778;2022-12-15T08:33:57;13.38;;;8.00;;
18875;SDS011;9570;50.854;13.778;2022-12-15T08:36:23;15.48;;;8.15;;
18875;SDS011;9570;50.854;13.778;2022-12-15T08:38:49;14.57;;;7.80;;
18875;SDS011;9570;50.854;13.778;2022-12-15T08:41:16;12.33;;;6.70;;
18875;SDS011;9570;50.854;13.778;2022-12-15T08:43:44;12.07;;;7.57;;
18875;SDS011;9570;50.854;13.778;2022-12-15T08:46:11;15.85;;;8.93;;
18875;SDS011;9570;50.854;13.778;2022-12-15T08:48:37;17.27;;;9.70;;
18875;SDS011;9570;50.854;13.778;2022-12-15T08:51:03;18.87;;;10.40;;
18875;SDS011;9570;50.854;13.778;2022-12-15T08:53:29;22.17;;;12.48;;
18875;SDS011;9570;50.854;13.778;2022-12-15T08:55:54;20.77;;;10.87;;
18875;SDS011;9570;50.854;13.778;2022-12-15T08:58:25;19.40;;;11.07;;
18875;SDS011;9570;50.854;13.778;2022-12-15T09:00:50;20.37;;;12.33;;
18875;SDS011;9570;50.854;13.778;2022-12-15T09:03:16;26.57;;;15.90;;
18875;SDS011;9570;50.854;13.778;2022-12-15T09:05:41;27.23;;;14.73;;
18875;SDS011;9570;50.854;13.778;2022-12-15T09:08:07;26.70;;;15.17;;
18875;SDS011;9570;50.854;13.778;2022-12-15T09:10:32;25.70;;;13.93;;
18875;SDS011;9570;50.854;13.778;2022-12-15T09:12:58;21.53;;;13.87;;
18875;SDS011;9570;50.854;13.778;2022-12-15T09:15:23;22.27;;;13.53;;
18875;SDS011;9570;50.854;13.778;2022-12-15T09:17:49;17.47;;;10.70;;
18875;SDS011;9570;50.854;13.778;2022-12-15T09:20:14;17.80;;;10.10;;
18875;SDS011;9570;50.854;13.778;2022-12-15T09:22:40;16.30;;;9.37;;
18875;SDS011;9570;50.854;13.778;2022-12-15T09:25:06;15.67;;;10.07;;
18875;SDS011;9570;50.854;13.778;2022-12-15T09:27:32;17.83;;;10.50;;
18875;SDS011;9570;50.854;13.778;2022-12-15T09:29:58;18.05;;;9.93;;
18875;SDS011;9570;50.854;13.778;2022-12-15T09:32:24;16.40;;;10.57;;
18875;SDS011;9570;50.854;13.778;2022-12-15T09:34:50;21.73;;;11.97;;
18875;SDS011;9570;50.854;13.778;2022-12-15T09:37:16;19.67;;;12.47;;
18875;SDS011;9570;50.854;13.778;2022-12-15T09:39:42;19.70;;;11.95;;
18875;SDS011;9570;50.854;13.778;2022-12-15T09:42:24;25.80;;;17.90;;
18875;SDS011;9570;50.854;13.778;2022-12-15T09:45:14;24.20;;;16.23;;
18875;SDS011;9570;50.854;13.778;2022-12-15T09:47:57;20.17;;;13.18;;
18875;SDS011;9570;50.854;13.778;2022-12-15T09:50:27;18.10;;;11.45;;
18875;SDS011;9570;50.854;13.778;2022-12-15T09:52:58;15.57;;;9.93;;
18875;SDS011;9570;50.854;13.778;2022-12-15T09:55:26;15.98;;;9.75;;
18875;SDS011;9570;50.854;13.778;2022-12-15T09:57:54;15.63;;;9.60;;
18875;SDS011;9570;50.854;13.778;2022-12-15T10:00:40;16.67;;;9.98;;
18875;SDS011;9570;50.854;13.778;2022-12-15T10:03:22;15.05;;;9.13;;
18875;SDS011;9570;50.854;13.778;2022-12-15T10:06:01;17.27;;;10.25;;
18875;SDS011;9570;50.854;13.778;2022-12-15T10:08:32;15.02;;;9.25;;
18875;SDS011;9570;50.854;13.778;2022-12-15T10:11:14;15.43;;;9.63;;
18875;SDS011;9570;50.854;13.778;2022-12-15T10:19:40;21.05;;;11.30;;
18875;SDS011;9570;50.854;13.778;2022-12-15T10:22:12;16.75;;;10.32;;
18875;SDS011;9570;50.854;13.778;2022-12-15T10:24:40;30.83;;;14.93;;
18875;SDS011;9570;50.854;13.778;2022-12-15T10:27:12;32.13;;;13.90;;
18875;SDS011;9570;50.854;13.778;2022-12-15T10:30:00;17.20;;;10.23;;
18875;SDS011;9570;50.854;13.778;2022-12-15T10:32:50;16.37;;;9.10;;
18875;SDS011;9570;50.854;13.778;2022-12-15T10:35:30;17.83;;;9.30;;
18875;SDS011;9570;50.854;13.778;2022-12-15T10:37:59;20.67;;;11.10;;
18875;SDS011;9570;50.854;13.778;2022-12-15T10:40:41;16.57;;;9.53;;
18875;SDS011;9570;50.854;13.778;2022-12-15T10:43:12;16.03;;;9.27;;
18875;SDS011;9570;50.854;13.778;2022-12-15T10:45:58;15.47;;;9.90;;
18875;SDS011;9570;50.854;13.778;2022-12-15T10:48:52;13.50;;;8.50;;
18875;SDS011;9570;50.854;13.778;2022-12-15T10:51:31;12.77;;;7.37;;
18875;SDS011;9570;50.854;13.778;2022-12-15T10:56:34;15.80;;;9.70;;
18875;SDS011;9570;50.854;13.778;2022-12-15T10:59:28;15.00;;;9.33;;
18875;SDS011;9570;50.854;13.778;2022-12-15T11:04:57;15.37;;;10.27;;
18875;SDS011;9570;50.854;13.778;2022-12-15T11:07:45;14.90;;;9.83;;
18875;SDS011;9570;50.854;13.778;2022-12-15T11:10:17;12.57;;;8.53;;
18875;SDS011;9570;50.854;13.778;2022-12-15T11:12:57;13.70;;;10.00;;
18875;SDS011;9570;50.854;13.778;2022-12-15T11:15:38;11.87;;;8.30;;
18875;SDS011;9570;50.854;13.778;2022-12-15T11:23:35;11.57;;;6.90;;
18875;SDS011;9570;50.854;13.778;2022-12-15T11:26:04;9.70;;;6.77;;
18875;SDS011;9570;50.854;13.778;2022-12-15T11:28:40;13.13;;;7.80;;
18875;SDS011;9570;50.854;13.778;2022-12-15T11:31:21;11.97;;;8.00;;
18875;SDS011;9570;50.854;13.778;2022-12-15T11:33:55;12.00;;;7.40;;
18875;SDS011;9570;50.854;13.778;2022-12-15T11:36:28;14.50;;;8.40;;
18875;SDS011;9570;50.854;13.778;2022-12-15T11:38:59;15.53;;;8.83;;
18875;SDS011;9570;50.854;13.778;2022-12-15T11:41:39;11.00;;;7.40;;
18875;SDS011;9570;50.854;13.778;2022-12-15T11:46:52;12.60;;;7.67;;
18875;SDS011;9570;50.854;13.778;2022-12-15T11:50:02;11.18;;;7.35;;
18875;SDS011;9570;50.854;13.778;2022-12-15T11:52:44;10.63;;;7.38;;
18875;SDS011;9570;50.854;13.778;2022-12-15T11:55:28;14.57;;;8.23;;
18875;SDS011;9570;50.854;13.778;2022-12-15T11:58:18;12.95;;;8.35;;
18875;SDS011;9570;50.854;13.778;2022-12-15T12:00:53;10.82;;;6.28;;
18875;SDS011;9570;50.854;13.778;2022-12-15T12:03:37;11.88;;;6.80;;
18875;SDS011;9570;50.854;13.778;2022-12-15T12:06:10;11.88;;;6.47;;
18875;SDS011;9570;50.854;13.778;2022-12-15T12:08:45;12.13;;;7.28;;
18875;SDS011;9570;50.854;13.778;2022-12-15T12:11:17;10.32;;;6.43;;
18875;SDS011;9570;50.854;13.778;2022-12-15T12:19:08;7.53;;;5.20;;
18875;SDS011;9570;50.854;13.778;2022-12-15T12:22:41;11.20;;;5.43;;
18875;SDS011;9570;50.854;13.778;2022-12-15T12:24:57;8.63;;;6.07;;
18875;SDS011;9570;50.854;13.778;2022-12-15T12:30:15;10.10;;;6.55;;
18875;SDS011;9570;50.854;13.778;2022-12-15T12:32:52;9.10;;;5.45;;
18875;SDS011;9570;50.854;13.778;2022-12-15T12:38:09;7.72;;;5.30;;
18875;SDS011;9570;50.854;13.778;2022-12-15T12:43:04;7.67;;;4.37;;
18875;SDS011;9570;50.854;13.778;2022-12-15T12:45:32;6.85;;;4.78;;
18875;SDS011;9570;50.854;13.778;2022-12-15T12:48:37;7.45;;;4.93;;
18875;SDS011;9570;50.854;13.778;2022-12-15T12:51:20;9.90;;;4.88;;
18875;SDS011;9570;50.854;13.778;2022-12-15T12:53:49;7.35;;;5.05;;
18875;SDS011;9570;50.854;13.778;2022-12-15T12:56:31;8.33;;;4.77;;
18875;SDS011;9570;50.854;13.778;2022-12-15T12:58:57;10.98;;;6.43;;
18875;SDS011;9570;50.854;13.778;2022-12-15T13:01:28;7.97;;;5.40;;
18875;SDS011;9570;50.854;13.778;2022-12-15T13:04:06;12.93;;;6.75;;
18875;SDS011;9570;50.854;13.778;2022-12-15T13:11:53;9.50;;;5.20;;
18875;SDS011;9570;50.854;13.778;2022-12-15T13:14:26;8.75;;;5.47;;
18875;SDS011;9570;50.854;13.778;2022-12-15T13:17:10;8.60;;;5.20;;
18875;SDS011;9570;50.854;13.778;2022-12-15T13:22:28;9.63;;;5.22;;
18875;SDS011;9570;50.854;13.778;2022-12-15T13:24:57;8.98;;;5.10;;
18875;SDS011;9570;50.854;13.778;2022-12-15T13:27:25;7.00;;;4.75;;
18875;SDS011;9570;50.854;13.778;2022-12-15T13:32:35;9.13;;;5.32;;
18875;SDS011;9570;50.854;13.778;2022-12-15T13:48:28;4.70;;;3.85;;
18875;SDS011;9570;50.854;13.778;2022-12-15T13:51:02;6.93;;;4.18;;
18875;SDS011;9570;50.854;13.778;2022-12-15T13:53:48;7.63;;;4.65;;
18875;SDS011;9570;50.854;13.778;2022-12-15T13:56:40;5.82;;;4.22;;
18875;SDS011;9570;50.854;13.778;2022-12-15T14:02:30;6.03;;;4.10;;
18875;SDS011;9570;50.854;13.778;2022-12-15T14:07:39;17.45;;;10.60;;
18875;SDS011;9570;50.854;13.778;2022-12-15T14:10:15;7.65;;;4.93;;
18875;SDS011;9570;50.854;13.778;2022-12-15T14:12:43;6.45;;;4.50;;
18875;SDS011;9570;50.854;13.778;2022-12-15T14:15:13;7.85;;;4.43;;
18875;SDS011;9570;50.854;13.778;2022-12-15T14:17:39;6.60;;;3.97;;
18875;SDS011;9570;50.854;13.778;2022-12-15T14:20:09;5.80;;;4.10;;
18875;SDS011;9570;50.854;13.778;2022-12-15T14:22:39;7.75;;;4.40;;
18875;SDS011;9570;50.854;13.778;2022-12-15T14:27:46;6.82;;;4.18;;
18875;SDS011;9570;50.854;13.778;2022-12-15T14:30:19;7.43;;;4.70;;
18875;SDS011;9570;50.854;13.778;2022-12-15T14:32:57;7.35;;;4.60;;
18875;SDS011;9570;50.854;13.778;2022-12-15T14:35:32;6.38;;;4.45;;
18875;SDS011;9570;50.854;13.778;2022-12-15T14:38:02;8.23;;;5.25;;
18875;SDS011;9570;50.854;13.778;2022-12-15T14:40:32;7.55;;;4.95;;
18875;SDS011;9570;50.854;13.778;2022-12-15T14:43:01;9.20;;;4.88;;
18875;SDS011;9570;50.854;13.778;2022-12-15T14:45:29;8.43;;;5.03;;
18875;SDS011;9570;50.854;13.778;2022-12-15T14:47:59;9.00;;;5.38;;
18875;SDS011;9570;50.854;13.778;2022-12-15T14:50:30;8.63;;;5.32;;
18875;SDS011;9570;50.854;13.778;2022-12-15T14:52:56;8.67;;;5.97;;
18875;SDS011;9570;50.854;13.778;2022-12-15T14:57:54;8.45;;;5.38;;
18875;SDS011;9570;50.854;13.778;2022-12-15T15:00:28;7.93;;;5.10;;
18875;SDS011;9570;50.854;13.778;2022-12-15T15:03:14;10.00;;;4.82;;
18875;SDS011;9570;50.854;13.778;2022-12-15T15:05:43;6.60;;;4.60;;
18875;SDS011;9570;50.854;13.778;2022-12-15T15:08:14;9.00;;;5.25;;
18875;SDS011;9570;50.854;13.778;2022-12-15T15:10:52;7.47;;;4.80;;
18875;SDS011;9570;50.854;13.778;2022-12-15T15:13:21;9.68;;;5.88;;
18875;SDS011;9570;50.854;13.778;2022-12-15T15:15:50;13.40;;;7.57;;
18875;SDS011;9570;50.854;13.778;2022-12-15T15:18:18;8.57;;;5.20;;
18875;SDS011;9570;50.854;13.778;2022-12-15T15:20:50;8.48;;;5.75;;
18875;SDS011;9570;50.854;13.778;2022-12-15T15:23:21;8.50;;;5.53;;
18875;SDS011;9570;50.854;13.778;2022-12-15T15:25:56;10.07;;;5.00;;
18875;SDS011;9570;50.854;13.778;2022-12-15T15:28:39;9.07;;;5.45;;
18875;SDS011;9570;50.854;13.778;2022-12-15T15:31:23;8.80;;;5.57;;
18875;SDS011;9570;50.854;13.778;2022-12-15T15:33:58;9.68;;;5.32;;
18875;SDS011;9570;50.854;13.778;2022-12-15T15:36:26;7.77;;;4.80;;
18875;SDS011;9570;50.854;13.778;2022-12-15T15:38:56;7.28;;;4.78;;
18875;SDS011;9570;50.854;13.778;2022-12-15T15:41:29;13.63;;;6.20;;
18875;SDS011;9570;50.854;13.778;2022-12-15T15:43:57;14.52;;;7.40;;
18875;SDS011;9570;50.854;13.778;2022-12-15T15:46:25;12.50;;;6.80;;
18875;SDS011;9570;50.854;13.778;2022-12-15T15:48:56;10.85;;;6.22;;
18875;SDS011;9570;50.854;13.778;2022-12-15T15:51:25;9.48;;;5.82;;
18875;SDS011;9570;50.854;13.778;2022-12-15T15:53:52;8.80;;;5.45;;
18875;SDS011;9570;50.854;13.778;2022-12-15T15:56:22;9.93;;;5.50;;
18875;SDS011;9570;50.854;13.778;2022-12-15T15:58:47;8.83;;;5.40;;
18875;SDS011;9570;50.854;13.778;2022-12-15T16:01:13;8.43;;;5.00;;
18875;SDS011;9570;50.854;13.778;2022-12-15T16:03:39;7.90;;;4.73;;
18875;SDS011;9570;50.854;13.778;2022-12-15T16:06:05;6.13;;;4.72;;
18875;SDS011;9570;50.854;13.778;2022-12-15T16:08:39;8.23;;;4.50;;
18875;SDS011;9570;50.854;13.778;2022-12-15T16:11:05;9.23;;;5.50;;
18875;SDS011;9570;50.854;13.778;2022-12-15T16:13:33;6.07;;;4.30;;
18875;SDS011;9570;50.854;13.778;2022-12-15T16:15:59;7.33;;;4.80;;
18875;SDS011;9570;50.854;13.778;2022-12-15T16:18:24;9.03;;;4.93;;
18875;SDS011;9570;50.854;13.778;2022-12-15T16:20:50;8.73;;;4.83;;
18875;SDS011;9570;50.854;13.778;2022-12-15T16:23:17;8.18;;;5.00;;
18875;SDS011;9570;50.854;13.778;2022-12-15T16:25:57;9.65;;;5.43;;
18875;SDS011;9570;50.854;13.778;2022-12-15T16:28:24;10.25;;;6.13;;